sensor_id;sensor_type;location;lat;lon;timestamp;pressure;altitude;pressure_sealevel;temperature;humidity
79707;BME280;69200;53.612;-2.416;2023-10-31T00:00:18;98100.09;;;6.99;98.57
79707;BME280;69200;53.612;-2.416;2023-10-31T00:02:45;98100.09;;;6.99;98.31
79707;BME280;69200;53.612;-2.416;2023-10-31T00:05:10;98118.97;;;6.99;97.62
79707;BME280;69200;53.612;-2.416;2023-10-31T00:07:36;98093.88;;;6.99;98.28
79707;BME280;69200;53.612;-2.416;2023-10-31T00:10:01;98094.69;;;6.99;97.79
79707;BME280;69200;53.612;-2.416;2023-10-31T00:12:27;98087.41;;;7.00;98.24
79707;BME280;69200;53.612;-2.416;2023-10-31T00:14:53;98096.31;;;7.00;98.11
79707;BME280;69200;53.612;-2.416;2023-10-31T00:17:18;98092.00;;;7.05;98.25
79707;BME280;69200;53.612;-2.416;2023-10-31T00:19:43;98103.38;;;7.07;98.38
79707;BME280;69200;53.612;-2.416;2023-10-31T00:22:09;98106.56;;;7.04;98.28
79707;BME280;69200;53.612;-2.416;2023-10-31T00:24:35;98099.28;;;6.99;98.70
79707;BME280;69200;53.612;-2.416;2023-10-31T00:27:00;98092.81;;;7.00;99.17
79707;BME280;69200;53.612;-2.416;2023-10-31T00:29:26;98093.56;;;6.95;98.80
79707;BME280;69200;53.612;-2.416;2023-10-31T00:31:51;98093.81;;;6.89;99.54
79707;BME280;69200;53.612;-2.416;2023-10-31T00:34:16;98096.31;;;7.00;100.00
79707;BME280;69200;53.612;-2.416;2023-10-31T00:36:42;98101.16;;;6.98;98.95
79707;BME280;69200;53.612;-2.416;2023-10-31T00:39:08;98107.66;;;7.03;98.92
79707;BME280;69200;53.612;-2.416;2023-10-31T00:41:33;98112.50;;;7.00;99.65
79707;BME280;69200;53.612;-2.416;2023-10-31T00:43:58;98119.94;;;6.83;99.64
79707;BME280;69200;53.612;-2.416;2023-10-31T00:46:24;98117.78;;;6.85;100.00
79707;BME280;69200;53.612;-2.416;2023-10-31T00:48:50;98110.88;;;6.99;99.46
79707;BME280;69200;53.612;-2.416;2023-10-31T00:51:16;98107.66;;;7.03;100.00
79707;BME280;69200;53.612;-2.416;2023-10-31T00:53:42;98106.78;;;6.97;98.78
79707;BME280;69200;53.612;-2.416;2023-10-31T00:56:08;98110.25;;;6.87;99.34
79707;BME280;69200;53.612;-2.416;2023-10-31T00:58:34;98105.13;;;6.86;99.66
79707;BME280;69200;53.612;-2.416;2023-10-31T01:01:01;98106.44;;;6.83;99.19
79707;BME280;69200;53.612;-2.416;2023-10-31T01:03:27;98090.19;;;6.73;99.34
79707;BME280;69200;53.612;-2.416;2023-10-31T01:05:52;98099.19;;;6.84;99.33
79707;BME280;69200;53.612;-2.416;2023-10-31T01:08:17;98109.09;;;6.78;99.49
79707;BME280;69200;53.612;-2.416;2023-10-31T01:10:43;98104.25;;;6.75;99.73
79707;BME280;69200;53.612;-2.416;2023-10-31T01:13:08;98099.94;;;6.79;99.78
79707;BME280;69200;53.612;-2.416;2023-10-31T01:15:34;98102.34;;;6.76;99.67
79707;BME280;69200;53.612;-2.416;2023-10-31T01:17:59;98106.34;;;6.73;99.65
79707;BME280;69200;53.612;-2.416;2023-10-31T01:20:24;98108.50;;;6.71;99.98
79707;BME280;69200;53.612;-2.416;2023-10-31T01:22:51;98106.63;;;6.71;100.00
79707;BME280;69200;53.612;-2.416;2023-10-31T01:25:16;98116.59;;;6.71;100.00
79707;BME280;69200;53.612;-2.416;2023-10-31T01:27:41;98118.53;;;6.76;100.00
79707;BME280;69200;53.612;-2.416;2023-10-31T01:30:08;98126.63;;;6.81;99.55
79707;BME280;69200;53.612;-2.416;2023-10-31T01:32:33;98108.00;;;6.74;99.85
79707;BME280;69200;53.612;-2.416;2023-10-31T01:34:59;98111.00;;;6.78;99.76
79707;BME280;69200;53.612;-2.416;2023-10-31T01:37:24;98114.75;;;6.77;99.78
79707;BME280;69200;53.612;-2.416;2023-10-31T01:39:49;98112.34;;;6.80;99.63
79707;BME280;69200;53.612;-2.416;2023-10-31T01:42:15;98122.84;;;6.77;99.18
79707;BME280;69200;53.612;-2.416;2023-10-31T01:44:41;98113.94;;;6.76;99.28
79707;BME280;69200;53.612;-2.416;2023-10-31T01:47:06;98117.94;;;6.73;99.71
79707;BME280;69200;53.612;-2.416;2023-10-31T01:49:32;98121.50;;;6.79;99.92
79707;BME280;69200;53.612;-2.416;2023-10-31T01:52:01;98126.97;;;6.89;99.24
79707;BME280;69200;53.612;-2.416;2023-10-31T01:54:29;98133.44;;;6.88;98.99
79707;BME280;69200;53.612;-2.416;2023-10-31T01:56:56;98123.94;;;6.81;98.82
79707;BME280;69200;53.612;-2.416;2023-10-31T01:59:27;98116.16;;;6.84;98.32
79707;BME280;69200;53.612;-2.416;2023-10-31T02:01:54;98108.34;;;6.83;98.90
79707;BME280;69200;53.612;-2.416;2023-10-31T02:04:20;98134.47;;;6.82;98.92
79707;BME280;69200;53.612;-2.416;2023-10-31T02:06:45;98124.75;;;6.81;98.74
79707;BME280;69200;53.612;-2.416;2023-10-31T02:09:11;98122.03;;;6.76;98.74
79707;BME280;69200;53.612;-2.416;2023-10-31T02:11:37;98116.09;;;6.74;98.97
79707;BME280;69200;53.612;-2.416;2023-10-31T02:14:03;98121.16;;;6.70;99.81
79707;BME280;69200;53.612;-2.416;2023-10-31T02:16:28;98108.44;;;6.61;100.00
79707;BME280;69200;53.612;-2.416;2023-10-31T02:18:53;98110.31;;;6.60;100.00
79707;BME280;69200;53.612;-2.416;2023-10-31T02:21:20;98117.63;;;6.65;100.00
79707;BME280;69200;53.612;-2.416;2023-10-31T02:24:04;98108.38;;;6.51;100.00
79707;BME280;69200;53.612;-2.416;2023-10-31T02:26:34;98116.94;;;6.48;100.00
79707;BME280;69200;53.612;-2.416;2023-10-31T02:29:00;98104.53;;;6.47;100.00
79707;BME280;69200;53.612;-2.416;2023-10-31T02:31:26;98102.97;;;6.51;100.00
79707;BME280;69200;53.612;-2.416;2023-10-31T02:33:52;98108.59;;;6.49;100.00
79707;BME280;69200;53.612;-2.416;2023-10-31T02:36:18;98092.69;;;6.48;100.00
79707;BME280;69200;53.612;-2.416;2023-10-31T02:38:43;98097.06;;;6.54;100.00
79707;BME280;69200;53.612;-2.416;2023-10-31T02:41:09;98117.47;;;6.44;100.00
79707;BME280;69200;53.612;-2.416;2023-10-31T02:43:35;98098.69;;;6.55;100.00
79707;BME280;69200;53.612;-2.416;2023-10-31T02:46:01;98099.16;;;6.47;100.00
79707;BME280;69200;53.612;-2.416;2023-10-31T02:48:26;98096.19;;;6.43;100.00
79707;BME280;69200;53.612;-2.416;2023-10-31T02:50:52;98101.78;;;6.41;100.00
79707;BME280;69200;53.612;-2.416;2023-10-31T02:53:18;98098.09;;;6.48;100.00
79707;BME280;69200;53.612;-2.416;2023-10-31T02:55:45;98085.63;;;6.41;100.00
79707;BME280;69200;53.612;-2.416;2023-10-31T02:58:11;98099.41;;;6.45;100.00
79707;BME280;69200;53.612;-2.416;2023-10-31T03:00:37;98092.41;;;6.44;100.00
79707;BME280;69200;53.612;-2.416;2023-10-31T03:03:03;98085.63;;;6.36;100.00
79707;BME280;69200;53.612;-2.416;2023-10-31T03:05:30;98093.69;;;6.36;100.00
79707;BME280;69200;53.612;-2.416;2023-10-31T03:07:55;98097.19;;;6.37;100.00
79707;BME280;69200;53.612;-2.416;2023-10-31T03:10:21;98097.72;;;6.34;100.00
79707;BME280;69200;53.612;-2.416;2023-10-31T03:12:47;98094.25;;;6.38;100.00
79707;BME280;69200;53.612;-2.416;2023-10-31T03:15:12;98089.38;;;6.35;100.00
79707;BME280;69200;53.612;-2.416;2023-10-31T03:17:38;98087.44;;;6.31;100.00
79707;BME280;69200;53.612;-2.416;2023-10-31T03:20:04;98085.81;;;6.30;100.00
79707;BME280;69200;53.612;-2.416;2023-10-31T03:22:29;98089.31;;;6.30;100.00
79707;BME280;69200;53.612;-2.416;2023-10-31T03:24:55;98073.69;;;6.27;100.00
79707;BME280;69200;53.612;-2.416;2023-10-31T03:27:20;98090.13;;;6.31;100.00
79707;BME280;69200;53.612;-2.416;2023-10-31T03:29:46;98082.56;;;6.28;100.00
79707;BME280;69200;53.612;-2.416;2023-10-31T03:32:12;98080.97;;;6.27;100.00
79707;BME280;69200;53.612;-2.416;2023-10-31T03:34:37;98079.03;;;6.22;100.00
79707;BME280;69200;53.612;-2.416;2023-10-31T03:37:03;98074.19;;;6.24;100.00
79707;BME280;69200;53.612;-2.416;2023-10-31T03:39:29;98080.69;;;6.28;100.00
79707;BME280;69200;53.612;-2.416;2023-10-31T03:41:55;98089.03;;;6.27;100.00
79707;BME280;69200;53.612;-2.416;2023-10-31T03:44:21;98089.59;;;6.29;100.00
79707;BME280;69200;53.612;-2.416;2023-10-31T03:46:47;98079.81;;;6.23;100.00
79707;BME280;69200;53.612;-2.416;2023-10-31T03:49:12;98083.66;;;6.27;100.00
79707;BME280;69200;53.612;-2.416;2023-10-31T03:51:39;98095.53;;;6.31;100.00
79707;BME280;69200;53.612;-2.416;2023-10-31T03:54:05;98098.56;;;6.39;100.00
79707;BME280;69200;53.612;-2.416;2023-10-31T03:56:39;98088.25;;;6.31;100.00
79707;BME280;69200;53.612;-2.416;2023-10-31T03:59:06;98095.84;;;6.34;100.00
79707;BME280;69200;53.612;-2.416;2023-10-31T04:01:32;98095.03;;;6.34;100.00
79707;BME280;69200;53.612;-2.416;2023-10-31T04:03:58;98097.41;;;6.30;100.00
79707;BME280;69200;53.612;-2.416;2023-10-31T04:06:23;98099.53;;;6.28;100.00
79707;BME280;69200;53.612;-2.416;2023-10-31T04:08:49;98089.59;;;6.29;100.00
79707;BME280;69200;53.612;-2.416;2023-10-31T04:11:14;98086.03;;;6.23;100.00
79707;BME280;69200;53.612;-2.416;2023-10-31T04:13:40;98098.19;;;6.26;100.00
79707;BME280;69200;53.612;-2.416;2023-10-31T04:16:06;98088.50;;;6.30;100.00
79707;BME280;69200;53.612;-2.416;2023-10-31T04:18:31;98092.81;;;6.26;100.00
79707;BME280;69200;53.612;-2.416;2023-10-31T04:20:57;98090.66;;;6.28;100.00
79707;BME280;69200;53.612;-2.416;2023-10-31T04:23:22;98091.22;;;6.30;100.00
79707;BME280;69200;53.612;-2.416;2023-10-31T04:25:47;98089.88;;;6.32;100.00
79707;BME280;69200;53.612;-2.416;2023-10-31T04:28:13;98097.66;;;6.29;100.00
79707;BME280;69200;53.612;-2.416;2023-10-31T04:30:40;98096.06;;;6.33;100.00
79707;BME280;69200;53.612;-2.416;2023-10-31T04:33:05;98097.41;;;6.30;100.00
79707;BME280;69200;53.612;-2.416;2023-10-31T04:35:30;98091.50;;;6.33;100.00
79707;BME280;69200;53.612;-2.416;2023-10-31T04:37:56;98098.53;;;6.34;100.00
79707;BME280;69200;53.612;-2.416;2023-10-31T04:40:22;98103.31;;;6.27;100.00
79707;BME280;69200;53.612;-2.416;2023-10-31T04:42:47;98096.59;;;6.30;100.00
79707;BME280;69200;53.612;-2.416;2023-10-31T04:45:13;98088.22;;;6.26;100.00
79707;BME280;69200;53.612;-2.416;2023-10-31T04:47:38;98101.47;;;6.33;100.00
79707;BME280;69200;53.612;-2.416;2023-10-31T04:50:04;98098.22;;;6.31;100.00
79707;BME280;69200;53.612;-2.416;2023-10-31T04:52:30;98093.34;;;6.28;100.00
79707;BME280;69200;53.612;-2.416;2023-10-31T04:54:57;98106.34;;;6.36;100.00
79707;BME280;69200;53.612;-2.416;2023-10-31T04:57:23;98113.09;;;6.38;100.00
79707;BME280;69200;53.612;-2.416;2023-10-31T04:59:50;98102.28;;;6.33;100.00
79707;BME280;69200;53.612;-2.416;2023-10-31T05:02:16;98104.50;;;6.41;100.00
79707;BME280;69200;53.612;-2.416;2023-10-31T05:04:41;98096.66;;;6.40;100.00
79707;BME280;69200;53.612;-2.416;2023-10-31T05:07:07;98099.69;;;6.43;100.00
79707;BME280;69200;53.612;-2.416;2023-10-31T05:09:33;98109.66;;;6.48;100.00
79707;BME280;69200;53.612;-2.416;2023-10-31T05:11:59;98106.72;;;6.50;100.00
79707;BME280;69200;53.612;-2.416;2023-10-31T05:14:25;98111.53;;;6.42;100.00
79707;BME280;69200;53.612;-2.416;2023-10-31T05:16:51;98115.25;;;6.41;100.00
79707;BME280;69200;53.612;-2.416;2023-10-31T05:19:16;98113.69;;;6.45;100.00
79707;BME280;69200;53.612;-2.416;2023-10-31T05:21:42;98111.28;;;6.49;100.00
79707;BME280;69200;53.612;-2.416;2023-10-31T05:24:07;98110.47;;;6.49;100.00
79707;BME280;69200;53.612;-2.416;2023-10-31T05:26:33;98112.94;;;6.50;100.00
79707;BME280;69200;53.612;-2.416;2023-10-31T05:28:59;98129.91;;;6.51;100.00
79707;BME280;69200;53.612;-2.416;2023-10-31T05:31:24;98116.44;;;6.51;100.00
79707;BME280;69200;53.612;-2.416;2023-10-31T05:33:50;98110.59;;;6.59;100.00
79707;BME280;69200;53.612;-2.416;2023-10-31T05:36:21;98121.78;;;6.45;100.00
79707;BME280;69200;53.612;-2.416;2023-10-31T05:38:47;98115.88;;;6.49;100.00
79707;BME280;69200;53.612;-2.416;2023-10-31T05:41:13;98121.38;;;6.59;100.00
79707;BME280;69200;53.612;-2.416;2023-10-31T05:43:39;98123.25;;;6.58;100.00
79707;BME280;69200;53.612;-2.416;2023-10-31T05:46:04;98135.66;;;6.64;100.00
79707;BME280;69200;53.612;-2.416;2023-10-31T05:48:31;98134.97;;;6.74;100.00
79707;BME280;69200;53.612;-2.416;2023-10-31T05:50:57;98139.75;;;6.67;100.00
79707;BME280;69200;53.612;-2.416;2023-10-31T05:53:23;98138.34;;;6.59;100.00
79707;BME280;69200;53.612;-2.416;2023-10-31T05:55:50;98136.16;;;6.56;100.00
79707;BME280;69200;53.612;-2.416;2023-10-31T05:58:16;98160.41;;;6.56;100.00
79707;BME280;69200;53.612;-2.416;2023-10-31T06:00:43;98137.28;;;6.60;100.00
79707;BME280;69200;53.612;-2.416;2023-10-31T06:03:09;98144.53;;;6.60;100.00
79707;BME280;69200;53.612;-2.416;2023-10-31T06:05:34;98145.03;;;6.57;100.00
79707;BME280;69200;53.612;-2.416;2023-10-31T06:08:00;98137.00;;;6.62;100.00
79707;BME280;69200;53.612;-2.416;2023-10-31T06:10:26;98147.78;;;6.62;100.00
79707;BME280;69200;53.612;-2.416;2023-10-31T06:12:51;98145.34;;;6.60;100.00
79707;BME280;69200;53.612;-2.416;2023-10-31T06:15:17;98141.84;;;6.60;100.00
79707;BME280;69200;53.612;-2.416;2023-10-31T06:17:42;98140.25;;;6.64;100.00
79707;BME280;69200;53.612;-2.416;2023-10-31T06:20:08;98140.03;;;6.70;100.00
79707;BME280;69200;53.612;-2.416;2023-10-31T06:22:34;98139.75;;;6.67;100.00
79707;BME280;69200;53.612;-2.416;2023-10-31T06:24:59;98152.78;;;6.80;100.00
79707;BME280;69200;53.612;-2.416;2023-10-31T06:27:25;98147.06;;;6.71;100.00
79707;BME280;69200;53.612;-2.416;2023-10-31T06:29:50;98148.47;;;6.79;100.00
79707;BME280;69200;53.612;-2.416;2023-10-31T06:32:15;98158.22;;;6.85;100.00
79707;BME280;69200;53.612;-2.416;2023-10-31T06:34:41;98157.34;;;6.75;100.00
79707;BME280;69200;53.612;-2.416;2023-10-31T06:37:06;98160.44;;;6.93;100.00
79707;BME280;69200;53.612;-2.416;2023-10-31T06:39:31;98160.66;;;6.87;100.00
79707;BME280;69200;53.612;-2.416;2023-10-31T06:41:58;98164.13;;;6.82;100.00
79707;BME280;69200;53.612;-2.416;2023-10-31T06:44:23;98168.94;;;6.80;100.00
79707;BME280;69200;53.612;-2.416;2023-10-31T06:46:49;98175.72;;;6.83;100.00
79707;BME280;69200;53.612;-2.416;2023-10-31T06:49:15;98177.81;;;6.76;100.00
79707;BME280;69200;53.612;-2.416;2023-10-31T06:51:42;98182.59;;;7.00;100.00
79707;BME280;69200;53.612;-2.416;2023-10-31T06:54:08;98190.72;;;7.06;100.00
79707;BME280;69200;53.612;-2.416;2023-10-31T06:56:34;98185.78;;;6.92;100.00
79707;BME280;69200;53.612;-2.416;2023-10-31T06:59:00;98194.94;;;6.91;100.00
79707;BME280;69200;53.612;-2.416;2023-10-31T07:01:26;98199.25;;;6.92;100.00
79707;BME280;69200;53.612;-2.416;2023-10-31T07:03:52;98201.22;;;7.02;100.00
79707;BME280;69200;53.612;-2.416;2023-10-31T07:06:18;98200.47;;;7.12;100.00
79707;BME280;69200;53.612;-2.416;2023-10-31T07:08:43;98200.19;;;7.08;100.00
79707;BME280;69200;53.612;-2.416;2023-10-31T07:11:08;98200.69;;;7.05;100.00
79707;BME280;69200;53.612;-2.416;2023-10-31T07:13:34;98204.19;;;7.06;100.00
79707;BME280;69200;53.612;-2.416;2023-10-31T07:15:59;98196.69;;;7.08;100.00
79707;BME280;69200;53.612;-2.416;2023-10-31T07:18:25;98201.94;;;6.92;100.00
79707;BME280;69200;53.612;-2.416;2023-10-31T07:20:50;98206.56;;;6.97;100.00
79707;BME280;69200;53.612;-2.416;2023-10-31T07:23:16;98200.03;;;6.88;100.00
79707;BME280;69200;53.612;-2.416;2023-10-31T07:25:42;98208.38;;;6.86;100.00
79707;BME280;69200;53.612;-2.416;2023-10-31T07:28:08;98210.50;;;6.84;100.00
79707;BME280;69200;53.612;-2.416;2023-10-31T07:30:34;98208.28;;;6.76;100.00
79707;BME280;69200;53.612;-2.416;2023-10-31T07:32:59;98216.91;;;6.78;100.00
79707;BME280;69200;53.612;-2.416;2023-10-31T07:35:24;98219.69;;;6.83;100.00
79707;BME280;69200;53.612;-2.416;2023-10-31T07:37:50;98228.31;;;6.85;100.00
79707;BME280;69200;53.612;-2.416;2023-10-31T07:40:15;98218.53;;;6.79;100.00
79707;BME280;69200;53.612;-2.416;2023-10-31T07:42:40;98229.13;;;6.86;100.00
79707;BME280;69200;53.612;-2.416;2023-10-31T07:45:06;98226.91;;;6.78;100.00
79707;BME280;69200;53.612;-2.416;2023-10-31T07:47:32;98226.09;;;6.77;100.00
79707;BME280;69200;53.612;-2.416;2023-10-31T07:49:58;98227.97;;;6.77;100.00
79707;BME280;69200;53.612;-2.416;2023-10-31T07:52:24;98234.47;;;6.81;100.00
79707;BME280;69200;53.612;-2.416;2023-10-31T07:54:51;98230.13;;;6.80;100.00
79707;BME280;69200;53.612;-2.416;2023-10-31T07:57:18;98224.47;;;6.76;100.00
79707;BME280;69200;53.612;-2.416;2023-10-31T07:59:44;98220.28;;;6.90;100.00
79707;BME280;69200;53.612;-2.416;2023-10-31T08:02:11;98228.84;;;6.82;100.00
79707;BME280;69200;53.612;-2.416;2023-10-31T08:04:37;98222.84;;;6.75;100.00
79707;BME280;69200;53.612;-2.416;2023-10-31T08:07:02;98228.31;;;6.85;100.00
79707;BME280;69200;53.612;-2.416;2023-10-31T08:09:27;98240.44;;;6.83;100.00
79707;BME280;69200;53.612;-2.416;2023-10-31T08:11:53;98241.84;;;6.90;100.00
79707;BME280;69200;53.612;-2.416;2023-10-31T08:14:19;98246.16;;;6.91;100.00
79707;BME280;69200;53.612;-2.416;2023-10-31T08:16:44;98240.72;;;6.86;100.00
79707;BME280;69200;53.612;-2.416;2023-10-31T08:19:10;98240.44;;;6.83;100.00
79707;BME280;69200;53.612;-2.416;2023-10-31T08:21:35;98243.47;;;6.91;100.00
79707;BME280;69200;53.612;-2.416;2023-10-31T08:24:03;98238.53;;;6.83;100.00
79707;BME280;69200;53.612;-2.416;2023-10-31T08:26:30;98235.94;;;6.93;100.00
79707;BME280;69200;53.612;-2.416;2023-10-31T08:28:56;98237.50;;;6.89;100.00
79707;BME280;69200;53.612;-2.416;2023-10-31T08:31:21;98250.50;;;6.92;100.00
79707;BME280;69200;53.612;-2.416;2023-10-31T08:33:47;98243.81;;;7.00;100.00
79707;BME280;69200;53.612;-2.416;2023-10-31T08:36:12;98238.75;;;7.09;100.00
79707;BME280;69200;53.612;-2.416;2023-10-31T08:38:38;98242.34;;;7.19;100.00
79707;BME280;69200;53.612;-2.416;2023-10-31T08:41:03;98242.88;;;7.16;100.00
79707;BME280;69200;53.612;-2.416;2023-10-31T08:43:29;98243.69;;;7.17;100.00
79707;BME280;69200;53.612;-2.416;2023-10-31T08:45:54;98242.88;;;7.16;100.00
79707;BME280;69200;53.612;-2.416;2023-10-31T08:48:20;98248.53;;;7.20;100.00
79707;BME280;69200;53.612;-2.416;2023-10-31T08:50:46;98248.03;;;7.23;100.00
79707;BME280;69200;53.612;-2.416;2023-10-31T08:53:13;98237.47;;;7.16;100.00
79707;BME280;69200;53.612;-2.416;2023-10-31T08:55:39;98251.88;;;7.32;100.00
79707;BME280;69200;53.612;-2.416;2023-10-31T08:58:11;98244.06;;;7.36;100.00
79707;BME280;69200;53.612;-2.416;2023-10-31T09:00:38;98247.03;;;7.34;100.00
79707;BME280;69200;53.612;-2.416;2023-10-31T09:03:06;98248.44;;;7.42;100.00
79707;BME280;69200;53.612;-2.416;2023-10-31T09:05:32;98248.72;;;7.40;100.00
79707;BME280;69200;53.612;-2.416;2023-10-31T09:07:57;98250.38;;;7.46;100.00
79707;BME280;69200;53.612;-2.416;2023-10-31T09:10:22;98255.25;;;7.49;100.00
79707;BME280;69200;53.612;-2.416;2023-10-31T09:12:48;98252.81;;;7.48;100.00
79707;BME280;69200;53.612;-2.416;2023-10-31T09:15:13;98246.88;;;7.51;100.00
79707;BME280;69200;53.612;-2.416;2023-10-31T09:17:39;98255.31;;;7.60;100.00
79707;BME280;69200;53.612;-2.416;2023-10-31T09:20:05;98255.84;;;7.56;100.00
79707;BME280;69200;53.612;-2.416;2023-10-31T09:22:30;98255.84;;;7.62;100.00
79707;BME280;69200;53.612;-2.416;2023-10-31T09:24:56;98262.66;;;7.69;100.00
79707;BME280;69200;53.612;-2.416;2023-10-31T09:27:21;98251.56;;;7.66;100.00
79707;BME280;69200;53.612;-2.416;2023-10-31T09:29:46;98276.44;;;7.73;100.00
79707;BME280;69200;53.612;-2.416;2023-10-31T09:32:12;98265.59;;;7.68;100.00
79707;BME280;69200;53.612;-2.416;2023-10-31T09:34:37;98259.63;;;7.61;100.00
79707;BME280;69200;53.612;-2.416;2023-10-31T09:37:03;98266.50;;;7.78;100.00
79707;BME280;69200;53.612;-2.416;2023-10-31T09:39:28;98274.81;;;7.72;100.00
79707;BME280;69200;53.612;-2.416;2023-10-31T09:41:54;98272.66;;;7.74;100.00
79707;BME280;69200;53.612;-2.416;2023-10-31T09:44:19;98273.22;;;7.76;100.00
79707;BME280;69200;53.612;-2.416;2023-10-31T09:46:45;98270.00;;;7.79;99.90
79707;BME280;69200;53.612;-2.416;2023-10-31T09:49:10;98269.75;;;7.85;100.00
79707;BME280;69200;53.612;-2.416;2023-10-31T09:51:37;98276.56;;;7.93;99.68
79707;BME280;69200;53.612;-2.416;2023-10-31T09:54:06;98273.31;;;7.86;99.73
79707;BME280;69200;53.612;-2.416;2023-10-31T09:56:33;98279.53;;;7.92;99.42
79707;BME280;69200;53.612;-2.416;2023-10-31T09:59:01;98278.75;;;7.96;99.51
79707;BME280;69200;53.612;-2.416;2023-10-31T10:01:28;98286.25;;;7.89;100.00
79707;BME280;69200;53.612;-2.416;2023-10-31T10:03:56;98287.34;;;7.93;100.00
79707;BME280;69200;53.612;-2.416;2023-10-31T10:06:22;98281.69;;;7.90;99.61
79707;BME280;69200;53.612;-2.416;2023-10-31T10:08:49;98280.09;;;7.99;99.79
79707;BME280;69200;53.612;-2.416;2023-10-31T10:11:15;98280.34;;;7.92;100.00
79707;BME280;69200;53.612;-2.416;2023-10-31T10:13:40;98281.41;;;7.91;99.83
79707;BME280;69200;53.612;-2.416;2023-10-31T10:16:06;98291.97;;;7.98;99.46
79707;BME280;69200;53.612;-2.416;2023-10-31T10:18:33;98294.72;;;8.03;99.81
79707;BME280;69200;53.612;-2.416;2023-10-31T10:21:09;98299.31;;;8.07;99.04
79707;BME280;69200;53.612;-2.416;2023-10-31T10:23:35;98290.69;;;8.05;100.00
79707;BME280;69200;53.612;-2.416;2023-10-31T10:26:01;98291.53;;;8.16;99.48
79707;BME280;69200;53.612;-2.416;2023-10-31T10:28:27;98297.19;;;8.14;99.57
79707;BME280;69200;53.612;-2.416;2023-10-31T10:30:54;98300.63;;;7.95;99.58
79707;BME280;69200;53.612;-2.416;2023-10-31T10:33:20;98296.03;;;8.00;99.98
79707;BME280;69200;53.612;-2.416;2023-10-31T10:35:46;98299.03;;;8.04;99.85
79707;BME280;69200;53.612;-2.416;2023-10-31T10:38:14;98305.22;;;7.99;100.00
79707;BME280;69200;53.612;-2.416;2023-10-31T10:40:42;98302.75;;;7.88;100.00
79707;BME280;69200;53.612;-2.416;2023-10-31T10:43:28;98310.03;;;7.92;100.00
79707;BME280;69200;53.612;-2.416;2023-10-31T10:45:58;98308.41;;;7.91;100.00
79707;BME280;69200;53.612;-2.416;2023-10-31T10:48:26;98300.09;;;7.98;100.00
79707;BME280;69200;53.612;-2.416;2023-10-31T10:51:57;98317.88;;;7.94;100.00
79707;BME280;69200;53.612;-2.416;2023-10-31T10:54:09;98303.06;;;8.01;100.00
79707;BME280;69200;53.612;-2.416;2023-10-31T10:56:46;98305.75;;;8.01;100.00
79707;BME280;69200;53.612;-2.416;2023-10-31T10:59:20;98298.16;;;7.93;100.00
79707;BME280;69200;53.612;-2.416;2023-10-31T11:01:48;98304.72;;;8.02;100.00
79707;BME280;69200;53.612;-2.416;2023-10-31T11:04:15;98317.72;;;8.16;100.00
79707;BME280;69200;53.612;-2.416;2023-10-31T11:06:42;98301.56;;;8.26;100.00
79707;BME280;69200;53.612;-2.416;2023-10-31T11:09:09;98311.28;;;8.22;100.00
79707;BME280;69200;53.612;-2.416;2023-10-31T11:11:37;98308.09;;;8.30;100.00
79707;BME280;69200;53.612;-2.416;2023-10-31T11:14:03;98318.13;;;8.34;100.00
79707;BME280;69200;53.612;-2.416;2023-10-31T11:16:34;98311.00;;;8.23;100.00
79707;BME280;69200;53.612;-2.416;2023-10-31T11:19:03;98304.28;;;8.31;100.00
79707;BME280;69200;53.612;-2.416;2023-10-31T11:21:28;98303.28;;;8.37;100.00
79707;BME280;69200;53.612;-2.416;2023-10-31T11:23:58;98303.28;;;8.42;100.00
79707;BME280;69200;53.612;-2.416;2023-10-31T11:26:29;98312.09;;;8.22;100.00
79707;BME280;69200;53.612;-2.416;2023-10-31T11:29:05;98315.66;;;8.33;100.00
79707;BME280;69200;53.612;-2.416;2023-10-31T11:31:31;98316.25;;;8.40;100.00
79707;BME280;69200;53.612;-2.416;2023-10-31T11:34:01;98309.50;;;8.37;100.00
79707;BME280;69200;53.612;-2.416;2023-10-31T11:36:30;98310.59;;;8.47;100.00
79707;BME280;69200;53.612;-2.416;2023-10-31T11:39:19;98311.97;;;8.44;100.00
79707;BME280;69200;53.612;-2.416;2023-10-31T11:41:54;98311.94;;;8.39;100.00
79707;BME280;69200;53.612;-2.416;2023-10-31T11:44:25;98312.03;;;8.59;100.00
79707;BME280;69200;53.612;-2.416;2023-10-31T11:46:51;98308.44;;;8.44;100.00
79707;BME280;69200;53.612;-2.416;2023-10-31T11:50:03;98311.38;;;8.42;100.00
79707;BME280;69200;53.612;-2.416;2023-10-31T11:52:17;98307.59;;;8.38;99.82
79707;BME280;69200;53.612;-2.416;2023-10-31T11:54:44;98300.03;;;8.35;100.00
79707;BME280;69200;53.612;-2.416;2023-10-31T11:57:10;98317.91;;;8.46;100.00
79707;BME280;69200;53.612;-2.416;2023-10-31T11:59:39;98311.97;;;8.49;100.00
79707;BME280;69200;53.612;-2.416;2023-10-31T12:02:15;98313.06;;;8.53;99.14
79707;BME280;69200;53.612;-2.416;2023-10-31T12:04:43;98309.03;;;8.56;99.33
79707;BME280;69200;53.612;-2.416;2023-10-31T12:07:08;98309.56;;;8.58;99.23
79707;BME280;69200;53.612;-2.416;2023-10-31T12:09:46;98303.41;;;8.67;98.93
79707;BME280;69200;53.612;-2.416;2023-10-31T12:12:12;98305.00;;;8.58;98.45
79707;BME280;69200;53.612;-2.416;2023-10-31T12:14:37;98303.97;;;8.75;97.35
79707;BME280;69200;53.612;-2.416;2023-10-31T12:17:07;98305.28;;;8.72;99.38
79707;BME280;69200;53.612;-2.416;2023-10-31T12:19:35;98309.38;;;8.75;96.69
79707;BME280;69200;53.612;-2.416;2023-10-31T12:22:01;98310.97;;;8.71;96.73
79707;BME280;69200;53.612;-2.416;2023-10-31T12:24:28;98307.75;;;8.84;98.08
79707;BME280;69200;53.612;-2.416;2023-10-31T12:26:53;98316.63;;;8.64;96.98
79707;BME280;69200;53.612;-2.416;2023-10-31T12:29:20;98320.47;;;8.83;97.87
79707;BME280;69200;53.612;-2.416;2023-10-31T12:31:50;98321.00;;;8.80;98.26
79707;BME280;69200;53.612;-2.416;2023-10-31T12:34:18;98317.97;;;8.61;98.25
79707;BME280;69200;53.612;-2.416;2023-10-31T12:36:46;98306.63;;;8.59;98.68
79707;BME280;69200;53.612;-2.416;2023-10-31T12:39:13;98314.09;;;8.42;99.54
79707;BME280;69200;53.612;-2.416;2023-10-31T12:41:40;98327.06;;;8.35;99.09
79707;BME280;69200;53.612;-2.416;2023-10-31T12:44:07;98315.91;;;8.31;99.72
79707;BME280;69200;53.612;-2.416;2023-10-31T12:46:39;98316.53;;;8.38;99.52
79707;BME280;69200;53.612;-2.416;2023-10-31T12:49:04;98319.50;;;8.37;100.00